createdAt,value
2022-09-03T00:00:18.977Z,1.40
2022-09-03T00:02:54.074Z,1.47
2022-09-03T00:05:27.120Z,1.57
2022-09-03T00:08:03.929Z,1.53
2022-09-03T00:10:39.141Z,1.90
2022-09-03T00:13:10.543Z,1.43
2022-09-03T00:15:41.417Z,1.60
2022-09-03T00:18:13.741Z,1.70
2022-09-03T00:20:45.931Z,1.60
2022-09-03T00:23:19.452Z,1.50
2022-09-03T00:25:54.326Z,1.80
2022-09-03T00:28:29.876Z,1.80
2022-09-03T00:31:08.520Z,1.70
2022-09-03T00:33:38.851Z,1.50
2022-09-03T00:36:15.960Z,1.63
2022-09-03T00:38:44.111Z,1.60
2022-09-03T00:41:22.210Z,1.53
2022-09-03T00:44:09.393Z,1.33
2022-09-03T00:46:44.289Z,1.50
2022-09-03T00:49:26.762Z,2.00
2022-09-03T00:52:12.565Z,2.13
2022-09-03T00:54:48.815Z,1.73
2022-09-03T00:57:30.035Z,1.90
2022-09-03T01:00:05.712Z,1.73
2022-09-03T01:02:49.199Z,1.90
2022-09-03T01:05:31.039Z,1.67
2022-09-03T01:08:13.423Z,1.77
2022-09-03T01:10:53.522Z,1.97
2022-09-03T01:13:25.222Z,1.70
2022-09-03T01:16:07.443Z,1.60
2022-09-03T01:18:45.997Z,1.83
2022-09-03T01:21:34.802Z,1.73
2022-09-03T01:24:21.220Z,2.30
2022-09-03T01:27:07.662Z,2.07
2022-09-03T01:29:44.959Z,1.83
2022-09-03T01:32:20.800Z,2.00
2022-09-03T01:34:58.707Z,1.83
2022-09-03T01:37:38.570Z,2.03
2022-09-03T01:40:16.407Z,1.80
2022-09-03T01:42:55.445Z,1.90
2022-09-03T01:45:46.747Z,1.60
2022-09-03T01:48:35.891Z,2.00
2022-09-03T01:51:12.243Z,1.90
2022-09-03T01:54:10.777Z,2.10
2022-09-03T01:56:56.761Z,1.83
2022-09-03T01:59:29.962Z,2.03
2022-09-03T02:02:03.765Z,1.87
2022-09-03T02:04:31.918Z,2.20
2022-09-03T02:07:02.366Z,1.90
2022-09-03T02:09:32.748Z,1.70
2022-09-03T02:12:15.479Z,1.93
2022-09-03T02:14:44.117Z,1.87
2022-09-03T02:17:13.713Z,2.00
2022-09-03T02:19:41.815Z,2.10
2022-09-03T02:22:10.784Z,2.10
2022-09-03T02:24:38.842Z,2.30
2022-09-03T02:27:06.807Z,2.17
2022-09-03T02:29:34.663Z,1.93
2022-09-03T02:32:02.598Z,2.27
2022-09-03T02:34:32.339Z,2.20
2022-09-03T02:37:00.082Z,1.93
2022-09-03T02:39:28.983Z,2.00
2022-09-03T02:41:59.892Z,2.20
2022-09-03T02:44:31.954Z,2.10
2022-09-03T02:47:02.712Z,2.17
2022-09-03T02:49:32.783Z,2.20
2022-09-03T02:52:05.887Z,2.13
2022-09-03T02:54:36.843Z,2.23
2022-09-03T02:57:04.992Z,1.93
2022-09-03T02:59:32.933Z,2.20
2022-09-03T03:02:01.270Z,1.90
2022-09-03T03:04:30.665Z,2.20
2022-09-03T03:07:00.109Z,2.37
2022-09-03T03:09:27.896Z,2.10
2022-09-03T03:11:56.366Z,2.20
2022-09-03T03:14:24.365Z,2.20
2022-09-03T03:16:52.721Z,1.90
2022-09-03T03:19:20.592Z,2.30
2022-09-03T03:21:48.390Z,2.13
2022-09-03T03:24:17.572Z,2.23
2022-09-03T03:26:45.375Z,2.10
2022-09-03T03:29:18.489Z,2.40
2022-09-03T03:31:46.291Z,2.07
2022-09-03T03:34:14.086Z,1.87
2022-09-03T03:36:42.065Z,2.00
2022-09-03T03:39:11.262Z,2.00
2022-09-03T03:41:40.938Z,1.97
2022-09-03T03:44:11.914Z,2.07
2022-09-03T03:46:41.457Z,2.13
2022-09-03T03:49:10.396Z,2.20
2022-09-03T03:51:38.880Z,2.30
2022-09-03T03:54:07.371Z,2.00
2022-09-03T03:56:36.102Z,2.00
2022-09-03T03:59:05.421Z,2.03
2022-09-03T04:01:33.418Z,2.37
2022-09-03T04:04:01.455Z,2.37
2022-09-03T04:06:29.946Z,2.10
2022-09-03T04:08:58.008Z,2.30
2022-09-03T04:11:26.622Z,2.20
2022-09-03T04:13:54.724Z,2.50
2022-09-03T04:16:26.275Z,2.40
2022-09-03T04:18:55.070Z,1.90
2022-09-03T04:21:25.373Z,2.87
2022-09-03T04:23:56.226Z,2.20
2022-09-03T04:26:26.227Z,2.30
2022-09-03T04:28:54.442Z,2.43
2022-09-03T04:31:24.192Z,2.67
2022-09-03T04:33:52.252Z,2.23
2022-09-03T04:36:21.776Z,2.33
2022-09-03T04:38:51.962Z,2.50
2022-09-03T04:41:22.199Z,2.37
2022-09-03T04:43:51.806Z,2.20
2022-09-03T04:46:20.207Z,2.47
2022-09-03T04:48:52.208Z,2.47
2022-09-03T04:51:22.456Z,2.53
2022-09-03T04:53:56.684Z,2.67
2022-09-03T04:56:26.778Z,2.50
2022-09-03T04:58:57.715Z,2.40
2022-09-03T05:01:27.920Z,2.37
2022-09-03T05:03:58.092Z,2.30
2022-09-03T05:06:26.738Z,2.43
2022-09-03T05:08:55.698Z,2.60
2022-09-03T05:11:24.315Z,2.20
2022-09-03T05:13:53.794Z,2.17
2022-09-03T05:16:22.801Z,3.20
2022-09-03T05:18:56.315Z,2.37
2022-09-03T05:21:26.091Z,2.20
2022-09-03T05:23:56.159Z,2.33
2022-09-03T05:26:25.903Z,2.30
2022-09-03T05:28:57.185Z,2.37
2022-09-03T05:31:28.240Z,2.10
2022-09-03T05:33:58.572Z,2.23
2022-09-03T05:36:29.836Z,2.20
2022-09-03T05:38:58.888Z,2.10
2022-09-03T05:41:27.567Z,2.60
2022-09-03T05:43:59.872Z,2.10
2022-09-03T05:46:31.833Z,2.40
2022-09-03T05:49:00.589Z,2.53
2022-09-03T05:51:30.498Z,2.47
2022-09-03T05:53:59.193Z,2.30
2022-09-03T05:56:30.816Z,2.17
2022-09-03T05:59:02.108Z,2.30
2022-09-03T06:01:31.969Z,2.50
2022-09-03T06:04:00.965Z,2.40
2022-09-03T06:06:33.615Z,2.60
2022-09-03T06:09:03.396Z,2.17
2022-09-03T06:11:32.960Z,2.50
2022-09-03T06:14:02.472Z,2.60
2022-09-03T06:16:31.631Z,2.60
2022-09-03T06:19:00.009Z,2.37
2022-09-03T06:21:28.164Z,2.50
2022-09-03T06:24:00.367Z,2.43
2022-09-03T06:26:29.700Z,2.70
2022-09-03T06:28:59.912Z,2.37
2022-09-03T06:31:28.332Z,2.37
2022-09-03T06:33:59.609Z,2.33
2022-09-03T06:36:29.111Z,2.30
2022-09-03T06:38:58.830Z,2.07
2022-09-03T06:41:28.433Z,2.13
2022-09-03T06:44:03.104Z,2.00
2022-09-03T06:46:32.263Z,2.40
2022-09-03T06:49:00.435Z,2.07
2022-09-03T06:51:30.302Z,2.20
2022-09-03T06:54:04.276Z,2.00
2022-09-03T06:56:37.364Z,1.80
2022-09-03T06:59:09.229Z,2.00
2022-09-03T07:01:41.153Z,2.00
2022-09-03T07:04:14.690Z,1.87
2022-09-03T07:06:43.705Z,2.10
2022-09-03T07:09:15.361Z,2.27
2022-09-03T07:11:47.471Z,1.87
2022-09-03T07:14:16.824Z,2.10
2022-09-03T07:16:46.028Z,1.80
2022-09-03T07:19:14.449Z,2.10
2022-09-03T07:21:48.413Z,1.80
2022-09-03T07:24:19.532Z,2.20
2022-09-03T07:26:48.844Z,1.97
2022-09-03T07:29:20.457Z,2.10
2022-09-03T07:31:51.423Z,1.70
2022-09-03T07:34:22.047Z,2.10
2022-09-03T07:36:51.267Z,2.00
2022-09-03T07:39:21.247Z,1.90
2022-09-03T07:41:50.271Z,1.97
2022-09-03T07:44:20.462Z,1.90
2022-09-03T07:46:50.818Z,1.70
2022-09-03T07:49:23.535Z,1.50
2022-09-03T07:51:54.766Z,1.60
2022-09-03T07:54:26.382Z,1.80
2022-09-03T07:56:55.484Z,1.80
2022-09-03T07:59:24.528Z,1.80
2022-09-03T08:02:29.654Z,1.83
2022-09-03T08:04:57.495Z,1.50
2022-09-03T08:07:25.280Z,1.80
2022-09-03T08:09:56.345Z,1.63
2022-09-03T08:12:24.223Z,1.73
2022-09-03T08:14:52.358Z,1.40
2022-09-03T08:17:20.183Z,1.70
2022-09-03T08:19:47.978Z,1.70
2022-09-03T08:22:15.753Z,1.50
2022-09-03T08:24:43.654Z,1.37
2022-09-03T08:27:12.778Z,1.60
2022-09-03T08:29:40.594Z,1.40
2022-09-03T08:32:08.455Z,1.58
2022-09-03T08:34:36.211Z,2.10
2022-09-03T08:37:05.579Z,1.60
2022-09-03T08:39:33.355Z,1.77
2022-09-03T08:42:36.867Z,1.63
2022-09-03T08:45:09.420Z,2.08
2022-09-03T08:47:43.564Z,1.60
2022-09-03T08:50:19.386Z,1.70
2022-09-03T08:52:50.066Z,1.65
2022-09-03T08:55:23.691Z,1.60
2022-09-03T08:57:57.798Z,1.80
2022-09-03T09:00:34.439Z,1.67
2022-09-03T09:03:23.836Z,1.60
2022-09-03T09:06:01.664Z,1.88
2022-09-03T09:08:36.359Z,1.88
2022-09-03T09:11:14.414Z,1.63
2022-09-03T09:13:51.081Z,1.80
2022-09-03T09:16:30.939Z,1.75
2022-09-03T09:19:14.537Z,1.70
2022-09-03T09:21:47.064Z,1.70
2022-09-03T09:24:23.472Z,1.45
2022-09-03T09:26:56.442Z,1.67
2022-09-03T09:29:24.193Z,1.95
2022-09-03T09:31:54.577Z,1.75
2022-09-03T09:34:22.347Z,1.45
2022-09-03T09:36:53.317Z,1.80
2022-09-03T09:39:21.977Z,1.75
2022-09-03T09:42:00.525Z,1.52
2022-09-03T09:44:29.061Z,1.80
2022-09-03T09:47:08.515Z,2.05
2022-09-03T09:49:39.228Z,1.75
2022-09-03T09:52:11.982Z,1.70
2022-09-03T09:54:41.177Z,1.75
2022-09-03T09:58:02.382Z,1.80
2022-09-03T10:04:26.965Z,1.75
2022-09-03T10:10:49.097Z,1.98
2022-09-03T10:13:54.477Z,1.88
2022-09-03T10:16:30.016Z,2.03
2022-09-03T10:26:33.985Z,1.58
2022-09-03T10:29:03.921Z,1.58
2022-09-03T10:32:16.720Z,1.83
2022-09-03T10:35:49.141Z,1.90
2022-09-03T10:38:27.529Z,1.85
2022-09-03T10:41:06.516Z,1.48
2022-09-03T10:44:06.869Z,1.60
2022-09-03T10:46:45.079Z,1.70
2022-09-03T10:49:36.634Z,1.90
2022-09-03T10:52:11.531Z,1.58
2022-09-03T10:54:52.608Z,2.00
2022-09-03T10:57:37.193Z,1.60
2022-09-03T11:04:04.435Z,1.80
2022-09-03T11:06:44.801Z,1.85
2022-09-03T11:10:07.880Z,1.95
2022-09-03T11:17:19.263Z,1.58
2022-09-03T11:19:54.998Z,1.58
2022-09-03T11:22:24.426Z,1.70
2022-09-03T11:24:59.006Z,1.55
2022-09-03T11:27:38.371Z,1.50
2022-09-03T11:30:08.818Z,1.70
2022-09-03T11:32:49.866Z,1.85
2022-09-03T11:35:29.903Z,1.58
2022-09-03T11:38:01.826Z,1.63
2022-09-03T11:40:40.472Z,2.03
2022-09-03T11:43:15.611Z,1.70
2022-09-03T11:45:44.458Z,1.73
2022-09-03T11:48:20.950Z,1.45
2022-09-03T11:50:56.655Z,1.73
2022-09-03T11:53:30.265Z,1.65
2022-09-03T11:56:02.328Z,1.48
2022-09-03T11:58:34.739Z,1.50
2022-09-03T12:01:04.329Z,1.50
2022-09-03T12:03:44.774Z,1.60
2022-09-03T12:06:55.089Z,1.52
2022-09-03T12:09:52.666Z,1.38
2022-09-03T12:12:41.981Z,1.63
2022-09-03T12:15:23.008Z,1.40
2022-09-03T12:18:08.953Z,1.67
2022-09-03T12:20:36.977Z,1.67
2022-09-03T12:23:05.006Z,1.70
2022-09-03T12:25:34.777Z,1.40
2022-09-03T12:28:04.966Z,1.63
2022-09-03T12:30:33.299Z,2.10
2022-09-03T12:33:11.115Z,1.60
2022-09-03T12:38:29.455Z,1.60
2022-09-03T12:43:52.800Z,1.75
2022-09-03T12:46:33.198Z,1.60
2022-09-03T12:52:05.185Z,1.88
2022-09-03T12:54:35.422Z,1.98
2022-09-03T12:57:05.513Z,1.98
2022-09-03T12:59:37.139Z,1.70
2022-09-03T13:02:14.872Z,1.67
2022-09-03T13:04:44.733Z,1.83
2022-09-03T13:07:16.572Z,1.65
2022-09-03T13:09:46.938Z,1.98
2022-09-03T13:12:33.475Z,1.65
2022-09-03T13:15:11.497Z,1.83
2022-09-03T13:17:58.091Z,1.80
2022-09-03T13:20:34.935Z,1.70
2022-09-03T13:23:27.903Z,1.67
2022-09-03T13:26:05.849Z,1.90
2022-09-03T13:28:52.610Z,1.77
2022-09-03T13:31:30.473Z,1.95
2022-09-03T13:34:02.960Z,1.77
2022-09-03T13:36:38.861Z,1.80
2022-09-03T13:39:17.603Z,1.75
2022-09-03T13:41:50.651Z,1.83
2022-09-03T13:44:33.067Z,1.95
2022-09-03T13:47:07.430Z,2.05
2022-09-03T13:49:58.080Z,1.90
2022-09-03T13:52:32.828Z,1.92
2022-09-03T13:55:08.245Z,1.55
2022-09-03T13:57:42.365Z,2.03
2022-09-03T14:00:14.280Z,2.03
2022-09-03T14:02:53.788Z,1.75
2022-09-03T14:05:40.022Z,1.98
2022-09-03T14:08:49.303Z,2.00
2022-09-03T14:11:39.643Z,2.28
2022-09-03T14:14:19.365Z,2.10
2022-09-03T14:17:00.913Z,2.10
2022-09-03T14:19:38.530Z,2.00
2022-09-03T14:22:12.306Z,2.30
2022-09-03T14:24:48.567Z,2.20
2022-09-03T14:27:25.826Z,2.30
2022-09-03T14:29:59.524Z,1.90
2022-09-03T14:32:37.822Z,2.20
2022-09-03T14:35:33.640Z,2.30
2022-09-03T14:38:25.183Z,2.53
2022-09-03T14:41:04.416Z,2.30
2022-09-03T14:43:56.186Z,2.23
2022-09-03T14:46:37.709Z,2.60
2022-09-03T14:49:48.173Z,2.53
2022-09-03T14:52:30.760Z,2.80
2022-09-03T14:55:16.232Z,2.80
2022-09-03T14:58:03.319Z,2.83
2022-09-03T15:00:43.335Z,2.57
2022-09-03T15:03:43.479Z,2.93
2022-09-03T15:06:30.651Z,3.10
2022-09-03T15:09:16.322Z,3.50
2022-09-03T15:11:51.069Z,3.30
2022-09-03T15:14:24.396Z,3.20
2022-09-03T15:17:00.287Z,3.27
2022-09-03T15:19:45.278Z,3.40
2022-09-03T15:22:30.340Z,2.97
2022-09-03T15:25:12.840Z,3.20
2022-09-03T15:27:54.113Z,3.20
2022-09-03T15:30:22.110Z,3.03
2022-09-03T15:33:06.143Z,3.43
2022-09-03T15:35:47.957Z,3.67
2022-09-03T15:38:34.277Z,3.63
2022-09-03T15:41:08.171Z,3.77
2022-09-03T15:43:36.102Z,3.40
2022-09-03T15:46:10.713Z,3.07
2022-09-03T15:48:48.651Z,2.70
2022-09-03T15:51:23.982Z,3.40
2022-09-03T15:53:58.164Z,3.40
2022-09-03T15:56:30.084Z,3.10
2022-09-03T15:59:03.951Z,3.30
2022-09-03T16:01:41.777Z,3.17
2022-09-03T16:04:21.252Z,3.40
2022-09-03T16:06:57.491Z,4.20
2022-09-03T16:13:32.267Z,5.00
2022-09-03T16:16:03.253Z,4.60
2022-09-03T16:18:35.816Z,4.03
2022-09-03T16:21:08.861Z,4.43
2022-09-03T16:23:43.046Z,3.47
2022-09-03T16:26:14.744Z,4.10
2022-09-03T16:28:50.144Z,3.90
2022-09-03T16:31:29.163Z,3.93
2022-09-03T16:34:10.204Z,4.10
2022-09-03T16:36:45.840Z,3.27
2022-09-03T16:39:27.149Z,3.90
2022-09-03T16:42:03.839Z,3.87
2022-09-03T16:44:46.162Z,5.10
2022-09-03T16:47:28.390Z,4.40
2022-09-03T16:50:06.636Z,4.20
2022-09-03T16:52:48.638Z,4.60
2022-09-03T16:55:24.546Z,4.93
2022-09-03T16:58:08.078Z,4.80
2022-09-03T17:00:50.453Z,4.67
2022-09-03T17:04:08.972Z,4.17
2022-09-03T17:07:05.879Z,4.30
2022-09-03T17:09:56.190Z,4.30
2022-09-03T17:12:34.325Z,4.10
2022-09-03T17:15:23.302Z,5.00
2022-09-03T17:18:32.715Z,4.47
2022-09-03T17:21:28.763Z,4.03
2022-09-03T17:24:19.002Z,4.40
2022-09-03T17:26:56.015Z,4.40
2022-09-03T17:29:40.458Z,4.07
2022-09-03T17:32:24.172Z,4.33
2022-09-03T17:35:04.591Z,3.87
2022-09-03T17:37:52.798Z,4.60
2022-09-03T17:40:30.019Z,4.20
2022-09-03T17:43:03.361Z,4.73
2022-09-03T17:45:44.396Z,4.83
2022-09-03T17:48:40.378Z,4.87
2022-09-03T17:51:15.346Z,4.17
2022-09-03T17:53:52.041Z,4.83
2022-09-03T17:56:26.089Z,5.03
2022-09-03T17:59:04.925Z,4.30
2022-09-03T18:01:38.732Z,3.93
2022-09-03T18:04:19.621Z,4.80
2022-09-03T18:06:56.126Z,6.30
2022-09-03T18:09:35.769Z,9.93
2022-09-03T18:12:11.685Z,9.90
2022-09-03T18:14:50.639Z,8.63
2022-09-03T18:17:28.182Z,7.67
2022-09-03T18:20:20.610Z,6.20
2022-09-03T18:23:11.684Z,5.77
2022-09-03T18:26:03.143Z,5.30
2022-09-03T18:28:56.848Z,5.40
2022-09-03T18:31:42.465Z,6.07
2022-09-03T18:34:28.086Z,5.50
2022-09-03T18:37:16.630Z,5.90
2022-09-03T18:40:05.275Z,5.53
2022-09-03T18:43:03.642Z,5.40
2022-09-03T18:49:14.851Z,5.70
2022-09-03T18:52:10.681Z,6.90
2022-09-03T18:55:13.655Z,6.50
2022-09-03T18:58:11.419Z,6.83
2022-09-03T19:01:04.865Z,5.90
2022-09-03T19:04:07.326Z,6.33
2022-09-03T19:07:03.563Z,5.60
2022-09-03T19:09:59.876Z,6.03
2022-09-03T19:12:59.833Z,5.50
2022-09-03T19:15:51.536Z,5.90
2022-09-03T19:18:48.807Z,5.23
2022-09-03T19:21:41.071Z,5.40
2022-09-03T19:24:27.805Z,5.80
2022-09-03T19:35:01.024Z,6.37
2022-09-03T19:37:52.452Z,6.37
2022-09-03T19:40:59.281Z,6.53
2022-09-03T19:43:52.425Z,6.53
2022-09-03T19:50:12.190Z,6.47
2022-09-03T19:53:04.098Z,6.10
2022-09-03T19:56:06.641Z,5.83
2022-09-03T19:58:57.427Z,5.93
2022-09-03T20:02:20.724Z,6.47
2022-09-03T20:05:15.572Z,6.23
2022-09-03T20:08:00.959Z,6.43
2022-09-03T20:10:28.424Z,6.23
2022-09-03T20:13:04.679Z,6.10
2022-09-03T20:15:45.051Z,5.80
2022-09-03T20:18:19.872Z,6.20
2022-09-03T20:20:57.546Z,6.57
2022-09-03T20:23:32.380Z,6.53
2022-09-03T20:26:19.028Z,6.70
2022-09-03T20:29:25.564Z,6.77
2022-09-03T20:32:03.752Z,6.27
2022-09-03T20:34:40.549Z,6.40
2022-09-03T20:37:16.736Z,6.27
2022-09-03T20:39:58.395Z,6.37
2022-09-03T20:42:50.138Z,6.30
2022-09-03T20:45:23.997Z,6.27
2022-09-03T20:48:09.934Z,6.50
2022-09-03T20:50:56.631Z,5.83
2022-09-03T20:53:49.605Z,6.50
2022-09-03T20:56:24.835Z,5.90
2022-09-03T20:59:03.069Z,6.27
2022-09-03T21:01:41.490Z,6.60
2022-09-03T21:04:24.519Z,6.40
2022-09-03T21:06:59.548Z,6.33
2022-09-03T21:09:39.182Z,6.07
2022-09-03T21:12:13.529Z,6.53
2022-09-03T21:14:50.691Z,6.73
2022-09-03T21:17:37.274Z,6.53
2022-09-03T21:20:17.291Z,7.17
2022-09-03T21:22:56.649Z,7.47
2022-09-03T21:25:31.554Z,6.87
2022-09-03T21:28:48.974Z,7.53
2022-09-03T21:35:12.136Z,6.73
2022-09-03T21:38:29.453Z,6.37
2022-09-03T21:44:55.607Z,6.67
2022-09-03T21:47:28.394Z,7.03
2022-09-03T21:50:04.317Z,6.90
2022-09-03T21:53:15.727Z,6.63
2022-09-03T21:55:56.497Z,7.80
2022-09-03T21:58:34.681Z,7.23
2022-09-03T22:01:09.573Z,6.33
2022-09-03T22:03:37.555Z,6.20
2022-09-03T22:06:11.571Z,7.17
2022-09-03T22:08:46.326Z,6.77
2022-09-03T22:11:21.724Z,6.93
2022-09-03T22:13:58.965Z,6.97
2022-09-03T22:16:33.406Z,7.10
2022-09-03T22:19:01.434Z,6.30
2022-09-03T22:21:37.304Z,6.13
2022-09-03T22:24:23.097Z,6.67
2022-09-03T22:26:58.207Z,7.13
2022-09-03T22:29:37.131Z,6.77
2022-09-03T22:32:16.835Z,7.03
2022-09-03T22:35:12.051Z,6.00
2022-09-03T22:37:52.678Z,6.83
2022-09-03T22:40:26.313Z,6.77
2022-09-03T22:43:09.676Z,6.80
2022-09-03T22:46:05.541Z,6.57
2022-09-03T23:07:35.079Z,6.57
2022-09-03T23:10:10.158Z,6.60
2022-09-03T23:13:07.511Z,6.33
2022-09-03T23:15:42.019Z,6.30
2022-09-03T23:18:15.395Z,6.00
2022-09-03T23:21:10.420Z,6.10
2022-09-03T23:28:17.874Z,6.77
2022-09-03T23:31:50.303Z,6.30
2022-09-03T23:39:02.120Z,5.63
2022-09-03T23:46:13.074Z,5.90
2022-09-03T23:48:55.518Z,6.03
2022-09-03T23:51:33.300Z,5.47
